createdAt,value
2018-05-08T00:01:35.914Z,15.20
2018-05-08T00:04:04.316Z,15.10
2018-05-08T00:06:33.074Z,15.10
2018-05-08T00:09:01.559Z,15.10
2018-05-08T00:11:30.343Z,15.00
2018-05-08T00:13:59.054Z,15.00
2018-05-08T00:16:27.774Z,15.00
2018-05-08T00:18:56.474Z,15.00
2018-05-08T00:21:25.958Z,14.90
2018-05-08T00:23:55.429Z,14.90
2018-05-08T00:26:24.652Z,14.80
2018-05-08T00:28:53.347Z,14.80
2018-05-08T00:31:22.079Z,14.70
2018-05-08T00:33:50.778Z,14.70
2018-05-08T00:36:19.512Z,14.60
2018-05-08T00:38:48.237Z,14.60
2018-05-08T00:41:16.965Z,14.60
2018-05-08T00:43:45.676Z,14.60
2018-05-08T00:46:14.400Z,14.50
2018-05-08T00:48:43.094Z,14.50
2018-05-08T00:51:11.902Z,14.40
2018-05-08T00:53:41.274Z,14.40
2018-05-08T00:56:10.745Z,14.30
2018-05-08T00:58:39.457Z,14.30
2018-05-08T01:01:08.601Z,14.20
2018-05-08T01:03:37.307Z,14.20
2018-05-08T01:06:06.020Z,14.10
2018-05-08T01:08:34.723Z,14.10
2018-05-08T01:11:04.196Z,14.00
2018-05-08T01:13:32.927Z,14.00
2018-05-08T01:16:01.401Z,13.90
2018-05-08T01:18:30.096Z,13.90
2018-05-08T01:20:58.809Z,13.80
2018-05-08T01:23:27.503Z,13.80
2018-05-08T01:25:56.654Z,13.70
2018-05-08T01:28:26.127Z,13.70
2018-05-08T01:30:54.839Z,13.70
2018-05-08T01:33:23.528Z,13.60
2018-05-08T01:35:52.779Z,13.60
2018-05-08T01:38:21.481Z,13.60
2018-05-08T01:40:50.202Z,13.60
2018-05-08T01:43:18.929Z,13.60
2018-05-08T01:45:47.798Z,13.60
2018-05-08T01:48:17.264Z,13.50
2018-05-08T01:50:46.011Z,13.50
2018-05-08T01:53:14.889Z,13.50
2018-05-08T01:55:43.600Z,13.50
2018-05-08T01:58:12.320Z,13.50
2018-05-08T02:00:41.055Z,13.50
2018-05-08T02:03:09.750Z,13.40
2018-05-08T02:05:38.461Z,13.40
2018-05-08T02:08:07.170Z,13.30
2018-05-08T02:10:35.892Z,13.30
2018-05-08T02:13:05.357Z,13.20
2018-05-08T02:15:34.090Z,13.20
2018-05-08T02:18:02.799Z,13.20
2018-05-08T02:20:31.530Z,13.10
2018-05-08T02:23:00.237Z,13.10
2018-05-08T02:25:29.722Z,13.10
2018-05-08T02:27:58.416Z,13.10
2018-05-08T02:30:27.135Z,13.10
2018-05-08T02:32:55.829Z,13.10
2018-05-08T02:35:25.406Z,13.00
2018-05-08T02:37:54.886Z,12.90
2018-05-08T02:40:23.592Z,12.90
2018-05-08T02:42:52.291Z,12.80
2018-05-08T02:45:21.002Z,12.80
2018-05-08T02:47:49.698Z,12.80
2018-05-08T02:50:18.422Z,12.70
2018-05-08T02:52:46.893Z,12.70
2018-05-08T02:55:15.387Z,12.70
2018-05-08T02:57:44.099Z,12.70
2018-05-08T03:00:12.811Z,12.60
2018-05-08T03:02:41.505Z,12.60
2018-05-08T03:05:10.233Z,12.60
2018-05-08T03:07:38.933Z,12.50
2018-05-08T03:10:07.963Z,12.50
2018-05-08T03:12:37.433Z,12.50
2018-05-08T03:15:05.810Z,12.50
2018-05-08T03:17:34.525Z,12.50
2018-05-08T03:20:03.666Z,12.40
2018-05-08T03:22:32.430Z,12.40
2018-05-08T03:25:01.143Z,12.30
2018-05-08T03:27:31.433Z,12.30
2018-05-08T03:30:00.905Z,12.20
2018-05-08T03:32:29.620Z,12.20
2018-05-08T03:34:59.398Z,12.20
2018-05-08T03:37:28.116Z,12.10
2018-05-08T03:39:57.587Z,12.20
2018-05-08T03:42:26.305Z,12.10
2018-05-08T03:44:54.999Z,12.10
2018-05-08T03:47:24.470Z,12.10
2018-05-08T03:49:53.939Z,12.10
2018-05-08T03:52:22.339Z,12.10
2018-05-08T03:54:51.030Z,12.10
2018-05-08T03:57:19.772Z,12.10
2018-05-08T03:59:48.672Z,12.10
2018-05-08T04:02:28.565Z,12.10
2018-05-08T04:05:08.692Z,12.10
2018-05-08T04:07:48.708Z,12.10
2018-05-08T04:10:17.441Z,12.00
2018-05-08T04:12:46.140Z,12.00
2018-05-08T04:15:18.733Z,12.00
2018-05-08T04:17:47.440Z,12.00
2018-05-08T04:20:16.168Z,12.00
2018-05-08T04:22:44.871Z,12.00
2018-05-08T04:25:13.259Z,12.00
2018-05-08T04:27:42.469Z,12.00
2018-05-08T04:30:11.167Z,12.00
2018-05-08T04:32:39.910Z,12.00
2018-05-08T04:35:08.641Z,12.00
2018-05-08T04:37:37.570Z,12.10
2018-05-08T04:40:07.289Z,12.20
2018-05-08T04:42:36.007Z,12.10
2018-05-08T04:45:04.805Z,12.10
2018-05-08T04:47:33.537Z,12.20
2018-05-08T04:50:03.045Z,12.30
2018-05-08T04:52:32.538Z,12.40
2018-05-08T04:55:01.235Z,12.40
2018-05-08T04:57:30.568Z,12.40
2018-05-08T04:59:58.969Z,12.30
2018-05-08T05:02:27.710Z,12.40
2018-05-08T05:04:57.201Z,12.50
2018-05-08T05:07:25.935Z,12.50
2018-05-08T05:09:54.335Z,12.60
2018-05-08T05:12:23.051Z,12.70
2018-05-08T05:14:51.774Z,12.60
2018-05-08T05:17:20.494Z,12.70
2018-05-08T05:19:49.212Z,12.70
2018-05-08T05:22:17.938Z,12.80
2018-05-08T05:24:46.670Z,12.80
2018-05-08T05:27:15.746Z,12.80
2018-05-08T05:29:45.345Z,12.80
2018-05-08T05:32:14.078Z,12.90
2018-05-08T05:34:42.801Z,12.90
2018-05-08T05:37:11.234Z,13.00
2018-05-08T05:39:39.973Z,13.10
2018-05-08T05:42:09.579Z,13.20
2018-05-08T05:44:38.376Z,13.20
2018-05-08T05:47:13.456Z,13.30
2018-05-08T05:49:45.119Z,13.40
2018-05-08T05:52:14.986Z,13.60
2018-05-08T05:54:45.432Z,13.60
2018-05-08T05:57:14.170Z,13.60
2018-05-08T05:59:43.337Z,13.90
2018-05-08T06:02:12.891Z,13.80
2018-05-08T06:04:42.413Z,14.10
2018-05-08T06:07:11.157Z,14.10
2018-05-08T06:09:40.176Z,14.20
2018-05-08T06:12:09.678Z,14.30
2018-05-08T06:14:39.172Z,14.40
2018-05-08T06:17:07.891Z,14.30
2018-05-08T06:19:37.352Z,14.50
2018-05-08T06:22:06.069Z,14.40
2018-05-08T06:24:35.308Z,14.60
2018-05-08T06:27:04.831Z,14.70
2018-05-08T06:29:36.093Z,14.90
2018-05-08T06:32:04.808Z,14.80
2018-05-08T06:34:34.297Z,15.10
2018-05-08T06:37:03.052Z,15.10
2018-05-08T06:39:31.164Z,15.20
2018-05-08T06:42:00.013Z,15.40
2018-05-08T06:44:28.713Z,15.50
2018-05-08T06:46:57.436Z,15.60
2018-05-08T06:49:26.901Z,15.80
2018-05-08T06:51:55.986Z,15.80
2018-05-08T06:54:24.485Z,16.00
2018-05-08T06:56:52.876Z,16.20
2018-05-08T06:59:21.600Z,16.20
2018-05-08T07:01:51.068Z,16.60
2018-05-08T07:04:19.786Z,16.60
2018-05-08T07:06:49.969Z,16.90
2018-05-08T07:09:18.463Z,16.90
2018-05-08T07:11:47.197Z,17.00
2018-05-08T07:14:16.200Z,17.10
2018-05-08T07:16:45.029Z,17.30
2018-05-08T07:19:14.570Z,17.50
2018-05-08T07:21:42.954Z,17.60
2018-05-08T07:24:13.771Z,17.70
2018-05-08T07:26:42.168Z,17.90
2018-05-08T07:29:11.645Z,18.20
2018-05-08T07:31:40.366Z,18.20
2018-05-08T07:34:10.470Z,18.40
2018-05-08T07:36:39.212Z,18.60
2018-05-08T07:39:07.936Z,18.80
2018-05-08T07:41:37.022Z,18.90
2018-05-08T07:44:05.755Z,19.10
2018-05-08T07:46:34.513Z,19.30
2018-05-08T07:49:05.384Z,19.50
2018-05-08T07:51:35.092Z,19.60
2018-05-08T07:54:03.468Z,19.70
2018-05-08T07:56:32.974Z,20.00
2018-05-08T07:59:01.693Z,20.00
2018-05-08T08:01:30.421Z,20.20
2018-05-08T08:03:59.164Z,20.40
2018-05-08T08:06:27.608Z,20.60
2018-05-08T08:08:57.090Z,20.90
2018-05-08T08:11:27.276Z,20.90
2018-05-08T08:13:55.989Z,21.10
2018-05-08T08:16:24.711Z,21.20
2018-05-08T08:18:54.191Z,21.60
2018-05-08T08:21:23.194Z,21.60
2018-05-08T08:23:51.984Z,21.70
2018-05-08T08:26:22.365Z,22.10
2018-05-08T08:28:51.074Z,22.00
2018-05-08T08:31:19.842Z,22.20
2018-05-08T08:33:48.584Z,22.40
2018-05-08T08:36:18.153Z,22.70
2018-05-08T08:38:47.390Z,22.60
2018-05-08T08:41:17.133Z,22.70
2018-05-08T08:43:45.841Z,22.80
2018-05-08T08:46:14.453Z,23.00
2018-05-08T08:48:44.864Z,23.20
2018-05-08T08:51:13.321Z,23.40
2018-05-08T08:53:42.042Z,23.50
2018-05-08T08:56:10.821Z,23.70
2018-05-08T08:58:39.588Z,23.80
2018-05-08T09:01:08.334Z,24.00
2018-05-08T09:03:36.783Z,24.10
2018-05-08T09:06:05.577Z,24.30
2018-05-08T09:08:34.327Z,24.50
2018-05-08T09:11:03.078Z,24.60
2018-05-08T09:13:31.631Z,24.60
2018-05-08T09:16:00.557Z,24.70
2018-05-08T09:18:30.080Z,24.90
2018-05-08T09:20:59.629Z,25.00
2018-05-08T09:23:28.610Z,25.00
2018-05-08T09:25:57.503Z,25.00
2018-05-08T09:28:27.751Z,25.20
2018-05-08T09:30:57.108Z,25.40
2018-05-08T09:33:25.985Z,25.60
2018-05-08T09:35:55.190Z,25.80
2018-05-08T09:38:23.902Z,25.80
2018-05-08T09:40:52.454Z,25.80
2018-05-08T09:43:21.530Z,25.90
2018-05-08T09:45:50.751Z,26.00
2018-05-08T09:48:20.230Z,26.20
2018-05-08T09:50:48.702Z,26.20
2018-05-08T09:53:17.898Z,26.40
2018-05-08T09:55:47.118Z,26.50
2018-05-08T09:58:15.602Z,26.50
2018-05-08T10:00:44.659Z,26.60
2018-05-08T10:03:13.089Z,26.60
2018-05-08T10:05:41.619Z,26.80
2018-05-08T10:08:10.038Z,26.80
2018-05-08T10:10:38.153Z,26.90
2018-05-08T10:13:07.214Z,27.00
2018-05-08T10:15:35.663Z,26.70
2018-05-08T10:18:03.765Z,27.10
2018-05-08T10:20:32.223Z,27.20
2018-05-08T10:23:00.662Z,27.30
2018-05-08T10:25:29.146Z,27.30
2018-05-08T10:27:57.785Z,27.30
2018-05-08T10:30:27.007Z,27.40
2018-05-08T10:32:55.471Z,27.40
2018-05-08T10:35:24.401Z,27.40
2018-05-08T10:37:53.114Z,27.50
2018-05-08T10:40:21.340Z,27.50
2018-05-08T10:42:49.796Z,27.80
2018-05-08T10:45:19.007Z,28.10
2018-05-08T10:47:48.213Z,28.10
2018-05-08T10:50:16.663Z,28.10
2018-05-08T10:52:45.109Z,28.10
2018-05-08T10:55:13.562Z,28.10
2018-05-08T10:57:42.005Z,28.00
2018-05-08T11:00:10.437Z,27.80
2018-05-08T11:02:39.113Z,27.70
2018-05-08T11:05:07.554Z,27.70
2018-05-08T11:07:35.998Z,27.90
2018-05-08T11:10:03.773Z,27.70
2018-05-08T11:12:32.316Z,27.90
2018-05-08T11:15:01.613Z,27.90
2018-05-08T11:17:30.841Z,28.00
2018-05-08T11:19:59.282Z,27.90
2018-05-08T11:22:28.492Z,27.90
2018-05-08T11:24:57.689Z,27.90
2018-05-08T11:27:26.422Z,27.90
2018-05-08T11:29:54.853Z,27.60
2018-05-08T11:32:23.744Z,27.90
2018-05-08T11:34:52.953Z,28.10
2018-05-08T11:37:22.167Z,28.10
2018-05-08T11:39:51.334Z,28.10
2018-05-08T11:42:20.573Z,28.10
2018-05-08T11:44:49.084Z,28.10
2018-05-08T11:47:17.639Z,27.50
2018-05-08T11:49:46.079Z,27.80
2018-05-08T11:52:14.539Z,27.90
2018-05-08T11:54:43.961Z,28.10
2018-05-08T11:57:12.421Z,28.40
2018-05-08T11:59:40.861Z,28.40
2018-05-08T12:02:09.329Z,28.40
2018-05-08T12:04:39.946Z,28.50
2018-05-08T12:07:09.186Z,28.60
2018-05-08T12:09:37.685Z,28.50
2018-05-08T12:12:06.175Z,28.50
2018-05-08T12:14:35.051Z,28.60
2018-05-08T12:17:03.711Z,28.60
2018-05-08T12:19:32.153Z,28.50
2018-05-08T12:22:00.697Z,28.60
2018-05-08T12:24:29.158Z,28.40
2018-05-08T12:26:57.188Z,28.40
2018-05-08T12:29:25.655Z,28.40
2018-05-08T12:31:54.113Z,28.40
2018-05-08T12:34:22.567Z,28.60
2018-05-08T12:36:51.818Z,28.90
2018-05-08T12:39:20.270Z,28.80
2018-05-08T12:41:50.176Z,29.10
2018-05-08T12:44:18.642Z,29.20
2018-05-08T12:46:47.663Z,29.10
2018-05-08T12:49:16.118Z,29.00
2018-05-08T12:51:45.339Z,28.90
2018-05-08T12:54:13.785Z,28.90
2018-05-08T12:56:42.240Z,29.00
2018-05-08T12:59:11.668Z,29.10
2018-05-08T13:01:40.912Z,29.20
2018-05-08T13:04:09.404Z,29.20
2018-05-08T13:06:38.774Z,28.90
2018-05-08T13:09:07.649Z,29.10
2018-05-08T13:11:38.374Z,29.40
2018-05-08T13:14:06.476Z,29.40
2018-05-08T13:16:34.966Z,29.40
2018-05-08T13:19:03.450Z,29.20
2018-05-08T13:21:31.919Z,29.20
2018-05-08T13:24:00.706Z,29.30
2018-05-08T13:26:28.866Z,29.00
2018-05-08T13:28:59.292Z,29.20
2018-05-08T13:31:27.767Z,29.20
2018-05-08T13:33:56.237Z,29.00
2018-05-08T13:36:25.501Z,29.00
2018-05-08T13:38:55.743Z,29.00
2018-05-08T13:41:24.210Z,28.90
2018-05-08T13:43:52.309Z,29.20
2018-05-08T13:46:20.761Z,29.30
2018-05-08T13:48:49.202Z,29.20
2018-05-08T13:51:18.465Z,29.30
2018-05-08T13:53:46.910Z,29.30
2018-05-08T13:56:15.366Z,29.30
2018-05-08T13:58:45.127Z,29.60
2018-05-08T14:01:14.839Z,29.50
2018-05-08T14:03:43.298Z,29.60
2018-05-08T14:06:11.783Z,29.60
2018-05-08T14:08:41.085Z,29.50
2018-05-08T14:11:10.334Z,29.50
2018-05-08T14:13:40.265Z,29.60
2018-05-08T14:16:08.165Z,29.70
2018-05-08T14:18:36.601Z,29.40
2018-05-08T14:21:05.068Z,29.40
2018-05-08T14:23:33.713Z,29.50
2018-05-08T14:26:01.825Z,29.40
2018-05-08T14:28:30.257Z,29.30
2018-05-08T14:30:59.485Z,29.10
2018-05-08T14:33:27.933Z,29.10
2018-05-08T14:35:56.390Z,29.20
2018-05-08T14:38:24.865Z,29.30
2018-05-08T14:40:53.473Z,29.40
2018-05-08T14:43:22.687Z,29.50
2018-05-08T14:45:51.222Z,29.50
2018-05-08T14:48:19.657Z,29.40
2018-05-08T14:50:48.114Z,29.40
2018-05-08T14:53:18.605Z,29.40
2018-05-08T14:55:47.095Z,29.40
2018-05-08T14:58:15.523Z,29.00
2018-05-08T15:00:43.985Z,29.00
2018-05-08T15:03:12.445Z,29.00
2018-05-08T15:05:41.003Z,29.00
2018-05-08T15:08:09.478Z,29.10
2018-05-08T15:10:37.619Z,29.00
2018-05-08T15:13:06.535Z,28.70
2018-05-08T15:15:35.145Z,28.70
2018-05-08T15:18:04.590Z,28.70
2018-05-08T15:20:33.171Z,28.70
2018-05-08T15:23:01.608Z,28.60
2018-05-08T15:25:30.086Z,28.50
2018-05-08T15:27:58.525Z,28.50
2018-05-08T15:30:27.780Z,28.40
2018-05-08T15:32:56.430Z,28.40
2018-05-08T15:35:24.653Z,28.40
2018-05-08T15:37:52.763Z,28.50
2018-05-08T15:40:21.985Z,28.20
2018-05-08T15:42:50.435Z,28.10
2018-05-08T15:45:19.662Z,28.10
2018-05-08T15:47:47.790Z,28.10
2018-05-08T15:50:16.254Z,27.80
2018-05-08T15:52:44.719Z,27.80
2018-05-08T15:55:13.874Z,27.60
2018-05-08T15:57:42.457Z,27.40
2018-05-08T16:00:11.210Z,27.40
2018-05-08T16:02:39.656Z,27.40
2018-05-08T16:05:08.107Z,27.40
2018-05-08T16:07:38.413Z,27.30
2018-05-08T16:10:06.874Z,27.30
2018-05-08T16:12:34.994Z,27.30
2018-05-08T16:15:03.866Z,27.20
2018-05-08T16:17:32.356Z,27.20
2018-05-08T16:20:00.789Z,27.10
2018-05-08T16:22:29.274Z,27.00
2018-05-08T16:24:57.703Z,26.90
2018-05-08T16:27:26.142Z,26.80
2018-05-08T16:29:54.239Z,26.70
2018-05-08T16:32:22.689Z,26.70
2018-05-08T16:34:51.150Z,26.60
2018-05-08T16:37:20.221Z,26.40
2018-05-08T16:39:49.454Z,26.40
2018-05-08T16:42:17.901Z,26.40
2018-05-08T16:44:46.326Z,26.40
2018-05-08T16:47:15.578Z,26.40
2018-05-08T16:49:44.035Z,26.20
2018-05-08T16:52:12.522Z,26.20
2018-05-08T16:54:40.961Z,26.10
2018-05-08T16:57:11.497Z,26.10
2018-05-08T16:59:43.862Z,26.10
2018-05-08T17:02:12.336Z,26.00
2018-05-08T17:04:40.851Z,26.00
2018-05-08T17:07:10.041Z,26.00
2018-05-08T17:09:40.079Z,25.80
2018-05-08T17:12:10.600Z,25.70
2018-05-08T17:14:39.829Z,25.70
2018-05-08T17:17:08.291Z,25.70
2018-05-08T17:19:36.728Z,25.70
2018-05-08T17:22:08.602Z,25.60
2018-05-08T17:24:37.047Z,25.50
2018-05-08T17:27:06.982Z,25.50
2018-05-08T17:29:36.200Z,25.40
2018-05-08T17:32:07.994Z,25.40
2018-05-08T17:34:36.460Z,25.40
2018-05-08T17:37:04.642Z,25.40
2018-05-08T17:39:33.810Z,25.30
2018-05-08T17:42:07.104Z,25.20
2018-05-08T17:44:39.274Z,25.20
2018-05-08T17:47:11.769Z,25.10
2018-05-08T17:49:39.991Z,25.00
2018-05-08T17:52:07.827Z,25.00
2018-05-08T17:54:36.519Z,24.90
2018-05-08T17:57:08.625Z,24.80
2018-05-08T18:02:12.942Z,24.70
2018-05-08T18:07:15.432Z,24.60
2018-05-08T18:09:45.935Z,24.50
2018-05-08T18:12:17.743Z,24.40
2018-05-08T18:17:21.598Z,24.20
2018-05-08T18:19:50.396Z,24.20
2018-05-08T18:22:19.893Z,24.00
2018-05-08T18:24:52.978Z,24.00
2018-05-08T18:27:33.114Z,24.00
2018-05-08T18:30:02.445Z,23.90
2018-05-08T18:32:33.630Z,23.80
2018-05-08T18:35:02.448Z,23.80
2018-05-08T18:37:31.175Z,23.70
2018-05-08T18:39:59.897Z,23.70
2018-05-08T18:42:28.610Z,23.60
2018-05-08T18:44:59.122Z,23.50
2018-05-08T18:47:27.688Z,23.50
2018-05-08T18:49:57.275Z,23.40
2018-05-08T18:52:28.873Z,23.40
2018-05-08T18:54:58.343Z,23.30
2018-05-08T18:57:27.072Z,23.20
2018-05-08T19:00:01.276Z,23.20
2018-05-08T19:02:36.144Z,23.10
2018-05-08T19:05:05.475Z,23.00
2018-05-08T19:07:43.367Z,22.90
2018-05-08T19:10:13.276Z,22.80
2018-05-08T19:12:41.981Z,22.80
2018-05-08T19:15:17.045Z,22.70
2018-05-08T19:17:46.715Z,22.70
2018-05-08T19:20:16.438Z,22.50
2018-05-08T19:22:46.157Z,22.40
2018-05-08T19:25:14.910Z,22.40
2018-05-08T19:27:43.619Z,22.30
2018-05-08T19:30:18.824Z,22.20
2018-05-08T19:32:47.247Z,22.10
2018-05-08T19:35:23.787Z,21.90
2018-05-08T19:37:59.561Z,21.80
2018-05-08T19:40:28.429Z,21.80
2018-05-08T19:42:57.174Z,21.80
2018-05-08T19:45:25.937Z,21.60
2018-05-08T19:47:55.515Z,21.50
2018-05-08T19:50:59.345Z,21.40
2018-05-08T20:02:23.274Z,21.20
2018-05-08T20:10:39.912Z,21.00
2018-05-08T20:13:10.371Z,21.00
2018-05-08T20:15:39.841Z,21.00
2018-05-08T20:18:10.566Z,21.00
2018-05-08T20:20:39.306Z,21.00
2018-05-08T20:23:08.447Z,20.90
2018-05-08T20:25:37.228Z,20.90
2018-05-08T20:28:05.292Z,21.00
2018-05-08T20:30:34.881Z,20.90
2018-05-08T20:33:03.706Z,20.90
2018-05-08T20:35:32.095Z,20.90
2018-05-08T20:38:00.515Z,20.80
2018-05-08T20:40:30.002Z,20.80
2018-05-08T20:42:59.406Z,20.80
2018-05-08T20:45:28.314Z,20.80
2018-05-08T20:47:57.627Z,20.70
2018-05-08T20:50:27.140Z,20.60
2018-05-08T20:52:55.863Z,20.60
2018-05-08T20:55:24.651Z,20.50
2018-05-08T20:57:53.363Z,20.40
2018-05-08T21:00:22.085Z,20.40
2018-05-08T21:02:51.551Z,20.30
2018-05-08T21:05:20.264Z,20.30
2018-05-08T21:07:49.745Z,20.10
2018-05-08T21:10:19.045Z,20.10
2018-05-08T21:12:47.753Z,20.00
2018-05-08T21:15:16.478Z,19.90
2018-05-08T21:17:45.093Z,19.90
2018-05-08T21:20:13.692Z,19.80
2018-05-08T21:22:42.414Z,19.80
2018-05-08T21:25:11.126Z,19.80
2018-05-08T21:27:45.381Z,19.70
2018-05-08T21:30:19.595Z,19.70
2018-05-08T21:32:49.171Z,19.80
2018-05-08T21:35:18.487Z,19.70
2018-05-08T21:37:47.202Z,19.70
2018-05-08T21:40:16.426Z,19.70
2018-05-08T21:42:45.922Z,19.60
2018-05-08T21:45:14.645Z,19.60
2018-05-08T21:47:43.351Z,19.60
2018-05-08T21:50:12.839Z,19.50
2018-05-08T21:52:41.567Z,19.50
2018-05-08T21:55:10.273Z,19.50
2018-05-08T21:57:38.987Z,19.40
2018-05-08T22:00:07.783Z,19.30
2018-05-08T22:02:37.202Z,19.20
2018-05-08T22:05:05.914Z,19.20
2018-05-08T22:07:34.641Z,19.20
2018-05-08T22:10:03.011Z,19.20
2018-05-08T22:12:31.733Z,19.10
2018-05-08T22:15:00.436Z,19.10
2018-05-08T22:17:29.167Z,19.00
2018-05-08T22:19:57.890Z,19.00
2018-05-08T22:22:27.372Z,18.80
2018-05-08T22:24:56.107Z,18.80
2018-05-08T22:27:24.829Z,18.70
2018-05-08T22:29:53.543Z,18.70
2018-05-08T22:32:21.576Z,18.60
2018-05-08T22:34:50.282Z,18.60
2018-05-08T22:37:18.995Z,18.50
2018-05-08T22:39:48.471Z,18.50
2018-05-08T22:42:17.186Z,18.50
2018-05-08T22:44:46.091Z,18.50
2018-05-08T22:47:14.823Z,18.40
2018-05-08T22:49:43.521Z,18.40
2018-05-08T22:52:12.247Z,18.30
2018-05-08T22:54:41.726Z,18.30
2018-05-08T22:57:10.439Z,18.20
2018-05-08T22:59:39.910Z,18.20
2018-05-08T23:02:08.629Z,18.20
2018-05-08T23:04:38.108Z,18.10
2018-05-08T23:07:06.829Z,18.10
2018-05-08T23:09:36.070Z,18.00
2018-05-08T23:12:04.803Z,18.00
2018-05-08T23:14:34.073Z,17.90
2018-05-08T23:17:02.798Z,17.90
2018-05-08T23:19:32.277Z,17.90
2018-05-08T23:22:01.030Z,17.80
2018-05-08T23:24:29.395Z,17.80
2018-05-08T23:26:58.125Z,17.80
2018-05-08T23:29:26.813Z,17.70
2018-05-08T23:31:55.518Z,17.70
2018-05-08T23:34:25.225Z,17.60
2018-05-08T23:36:53.949Z,17.60
2018-05-08T23:39:22.659Z,17.60
2018-05-08T23:41:51.037Z,17.60
2018-05-08T23:44:19.749Z,17.60
2018-05-08T23:46:48.480Z,17.60
2018-05-08T23:49:17.953Z,17.40
2018-05-08T23:51:46.675Z,17.40
2018-05-08T23:54:16.160Z,17.30
2018-05-08T23:56:45.084Z,17.30
2018-05-08T23:59:13.785Z,17.30
